Time;durP1;ratioP1;P1;durP2;ratioP2;P2;SDS_P1;SDS_P2;PMS_P1;PMS_P2;Temp;Humidity;BMP_temperature;BMP_pressure;BME280_temperature;BME280_humidity;BME280_pressure;Samples;Min_cycle;Max_cycle;Signal;HPM_P1;HPM_P2
2021/10/23 00:01:58;;;;;;;4.00;2.90;;;10.40;99.90;;;;;;5010025;28;20466;-63
2021/10/23 00:04:24;;;;;;;3.40;2.90;;;10.40;99.90;;;;;;5025503;28;20729;-63
2021/10/23 00:06:51;;;;;;;8.43;3.10;;;10.50;99.90;;;;;;5006675;28;20807;-64
2021/10/23 00:09:17;;;;;;;7.27;3.20;;;10.50;99.90;;;;;;5023442;28;20206;-64
2021/10/23 00:11:43;;;;;;;5.50;2.90;;;10.40;99.90;;;;;;5004644;28;20880;-64
2021/10/23 00:14:10;;;;;;;7.50;3.20;;;10.40;99.90;;;;;;5009866;28;20572;-65
2021/10/23 00:16:37;;;;;;;10.80;4.10;;;10.50;99.90;;;;;;5006713;28;20216;-64
2021/10/23 00:19:03;;;;;;;8.97;4.60;;;10.60;99.90;;;;;;5022102;28;20444;-64
2021/10/23 00:21:30;;;;;;;4.70;2.90;;;10.50;99.90;;;;;;5006887;28;20263;-65
2021/10/23 00:23:56;;;;;;;6.90;3.60;;;10.50;99.90;;;;;;5001314;28;20444;-64
2021/10/23 00:26:21;;;;;;;6.27;2.70;;;10.50;99.90;;;;;;5006445;28;20439;-64
2021/10/23 00:28:47;;;;;;;3.70;3.10;;;10.50;99.90;;;;;;5022651;28;20212;-63
2021/10/23 00:31:13;;;;;;;9.97;3.60;;;10.50;99.90;;;;;;5023804;28;20992;-63
2021/10/23 00:33:39;;;;;;;7.57;3.37;;;10.50;99.90;;;;;;5025276;28;20195;-63
2021/10/23 00:36:06;;;;;;;4.00;2.80;;;10.50;99.90;;;;;;5003157;28;20205;-63
2021/10/23 00:38:33;;;;;;;8.23;3.10;;;10.50;99.90;;;;;;5011811;28;20439;-64
2021/10/23 00:40:59;;;;;;;7.70;3.20;;;10.50;99.90;;;;;;5002478;28;20538;-64
2021/10/23 00:43:25;;;;;;;6.63;3.17;;;10.60;99.90;;;;;;5010158;28;20478;-64
2021/10/23 00:45:51;;;;;;;8.73;3.50;;;10.60;99.90;;;;;;4989556;28;20443;-65
2021/10/23 00:48:17;;;;;;;9.17;3.70;;;10.50;99.90;;;;;;5025449;28;20188;-61
2021/10/23 00:50:46;;;;;;;5.17;3.40;;;10.60;99.90;;;;;;5006316;28;20204;-61
2021/10/23 00:53:22;;;;;;;8.10;3.33;;;10.50;99.90;;;;;;5004410;28;20435;-61
2021/10/23 00:55:49;;;;;;;5.80;2.70;;;10.50;99.90;;;;;;5005761;28;20471;-60
2021/10/23 00:58:18;;;;;;;8.30;5.57;;;10.50;99.90;;;;;;5022065;28;20963;-61
2021/10/23 01:00:44;;;;;;;7.33;3.80;;;10.50;99.90;;;;;;5020214;28;20447;-64
2021/10/23 01:03:10;;;;;;;4.43;3.57;;;10.50;99.90;;;;;;5025060;28;20432;-64
2021/10/23 01:05:36;;;;;;;3.83;2.93;;;10.40;99.90;;;;;;5007299;28;20454;-64
2021/10/23 01:08:02;;;;;;;6.50;3.07;;;10.50;99.90;;;;;;5003209;28;20307;-64
2021/10/23 01:10:28;;;;;;;3.33;2.80;;;10.40;99.90;;;;;;5007830;28;20574;-64
2021/10/23 01:12:54;;;;;;;7.57;3.20;;;10.50;99.90;;;;;;5020996;28;20501;-64
2021/10/23 01:15:23;;;;;;;7.57;3.00;;;10.50;99.90;;;;;;5022151;28;20240;-62
2021/10/23 01:17:50;;;;;;;4.77;2.80;;;10.50;99.90;;;;;;5019950;28;20172;-62
2021/10/23 01:20:16;;;;;;;7.33;2.90;;;10.50;99.90;;;;;;5017329;28;20944;-62
2021/10/23 01:22:45;;;;;;;6.53;2.90;;;10.60;99.90;;;;;;5021382;28;20466;-64
2021/10/23 01:25:13;;;;;;;6.07;3.03;;;10.60;99.90;;;;;;5019302;28;20702;-65
2021/10/23 01:27:40;;;;;;;8.90;3.00;;;10.60;99.90;;;;;;5021795;28;20470;-65
2021/10/23 01:30:08;;;;;;;7.63;2.93;;;10.60;99.90;;;;;;5020743;28;20477;-64
2021/10/23 01:32:34;;;;;;;4.00;2.90;;;10.60;99.90;;;;;;5006240;28;20470;-65
2021/10/23 01:35:00;;;;;;;5.63;2.90;;;10.60;99.90;;;;;;5022528;28;20471;-64
2021/10/23 01:37:42;;;;;;;12.10;3.60;;;10.60;99.90;;;;;;5023910;28;20436;-64
2021/10/23 01:40:20;;;;;;;6.87;2.93;;;10.60;99.90;;;;;;5019340;28;20434;-65
2021/10/23 01:42:46;;;;;;;3.53;2.40;;;10.60;99.90;;;;;;5021637;28;20427;-61
2021/10/23 01:45:13;;;;;;;4.83;2.70;;;10.60;99.90;;;;;;5022479;28;20441;-65
2021/10/23 01:47:40;;;;;;;8.17;3.50;;;10.60;99.90;;;;;;5002008;28;20250;-65
2021/10/23 01:50:28;;;;;;;5.00;3.00;;;10.60;99.90;;;;;;5020457;28;20446;-65
2021/10/23 01:52:55;;;;;;;14.67;3.57;;;10.50;99.90;;;;;;5016945;28;20818;-65
2021/10/23 01:55:21;;;;;;;5.73;2.90;;;10.50;99.90;;;;;;5023026;28;20490;-65
2021/10/23 01:57:47;;;;;;;8.53;2.73;;;10.50;99.90;;;;;;5006662;28;20438;-65
2021/10/23 02:00:15;;;;;;;3.57;2.40;;;10.50;99.90;;;;;;5002564;28;20435;-65
2021/10/23 02:02:42;;;;;;;5.87;2.73;;;10.50;99.90;;;;;;5008831;28;20185;-65
2021/10/23 02:05:13;;;;;;;5.93;2.50;;;10.50;99.90;;;;;;5002580;28;20434;-65
2021/10/23 02:07:40;;;;;;;4.10;2.77;;;10.50;99.90;;;;;;5018711;28;20540;-65
2021/10/23 02:10:07;;;;;;;3.40;2.83;;;10.40;99.90;;;;;;5000996;28;20439;-65
2021/10/23 02:12:34;;;;;;;3.90;2.77;;;10.50;99.90;;;;;;5010165;28;20435;-64
2021/10/23 02:15:02;;;;;;;10.90;2.63;;;10.40;99.90;;;;;;5022114;28;20467;-61
2021/10/23 02:17:36;;;;;;;7.00;3.27;;;10.50;99.90;;;;;;5008927;28;20635;-64
2021/10/23 02:20:05;;;;;;;5.00;3.37;;;10.50;99.90;;;;;;5032723;28;20438;-63
2021/10/23 02:22:39;;;;;;;6.30;2.90;;;10.40;99.90;;;;;;5012467;28;20935;-65
2021/10/23 02:25:07;;;;;;;3.30;2.40;;;10.40;99.90;;;;;;5002184;28;20450;-62
2021/10/23 02:27:35;;;;;;;3.40;2.60;;;10.50;99.90;;;;;;5006659;28;20430;-62
2021/10/23 02:30:04;;;;;;;4.33;2.80;;;10.60;99.90;;;;;;5020887;28;20872;-62
2021/10/23 02:32:42;;;;;;;4.70;2.90;;;10.60;99.90;;;;;;5018440;28;20450;-64
2021/10/23 02:35:08;;;;;;;7.30;3.30;;;10.50;99.90;;;;;;5004892;28;20542;-65
2021/10/23 02:37:37;;;;;;;8.03;3.47;;;10.40;99.90;;;;;;5022548;28;20439;-64
2021/10/23 02:40:05;;;;;;;9.03;2.80;;;10.40;99.90;;;;;;5022008;28;20435;-64
2021/10/23 02:42:30;;;;;;;8.93;3.33;;;10.40;99.90;;;;;;5014665;28;20426;-64
2021/10/23 02:44:56;;;;;;;4.30;2.90;;;10.50;99.90;;;;;;5025672;28;20439;-63
2021/10/23 02:47:22;;;;;;;6.50;2.93;;;10.50;99.90;;;;;;5025775;28;20198;-64
2021/10/23 02:49:48;;;;;;;5.80;3.17;;;10.50;99.90;;;;;;5006911;28;20323;-64
2021/10/23 02:52:14;;;;;;;8.17;3.53;;;10.50;99.90;;;;;;5025271;28;20545;-62
2021/10/23 02:54:41;;;;;;;6.53;2.97;;;10.50;99.90;;;;;;5005243;28;20177;-62
2021/10/23 02:57:07;;;;;;;8.20;3.20;;;10.50;99.90;;;;;;5008391;28;20530;-65
2021/10/23 02:59:33;;;;;;;5.60;3.80;;;10.40;99.90;;;;;;5008280;28;20934;-65
2021/10/23 03:01:59;;;;;;;8.23;3.60;;;10.40;99.90;;;;;;5011738;28;20475;-62
2021/10/23 03:04:25;;;;;;;6.20;2.90;;;10.40;99.90;;;;;;5010016;28;20435;-62
2021/10/23 03:06:51;;;;;;;5.97;3.00;;;10.40;99.90;;;;;;5007073;28;20196;-65
2021/10/23 03:09:17;;;;;;;3.27;2.97;;;10.30;99.90;;;;;;5024424;28;20427;-65
2021/10/23 03:11:43;;;;;;;3.60;2.70;;;10.40;99.90;;;;;;5022806;28;20211;-65
2021/10/23 03:14:09;;;;;;;8.37;3.00;;;10.30;99.90;;;;;;5010761;28;20446;-65
2021/10/23 03:16:36;;;;;;;5.90;3.00;;;10.30;99.90;;;;;;5016134;28;20216;-65
2021/10/23 03:19:02;;;;;;;7.00;3.30;;;10.30;99.90;;;;;;5007978;28;20485;-65
2021/10/23 03:21:42;;;;;;;8.07;3.00;;;10.30;99.90;;;;;;5010717;28;20608;-65
2021/10/23 03:24:07;;;;;;;5.60;3.03;;;10.30;99.90;;;;;;5021565;28;20432;-65
2021/10/23 03:26:33;;;;;;;6.30;3.43;;;10.40;99.90;;;;;;5026339;28;20477;-62
2021/10/23 03:28:59;;;;;;;5.00;2.90;;;10.30;99.90;;;;;;5033265;22;20239;-64
2021/10/23 03:31:25;;;;;;;7.40;3.73;;;10.30;99.90;;;;;;5010244;28;20259;-59
2021/10/23 03:33:50;;;;;;;8.20;3.77;;;10.40;99.90;;;;;;5007629;28;20763;-59
2021/10/23 03:36:16;;;;;;;6.93;2.80;;;10.40;99.90;;;;;;5013073;28;20300;-60
2021/10/23 03:38:42;;;;;;;5.80;3.17;;;10.30;99.90;;;;;;5008921;28;20219;-60
2021/10/23 03:41:08;;;;;;;11.30;3.70;;;10.30;99.90;;;;;;5013148;28;20217;-59
2021/10/23 03:43:34;;;;;;;5.50;2.73;;;10.30;99.90;;;;;;5014517;28;20228;-60
2021/10/23 03:45:59;;;;;;;4.40;2.80;;;10.30;99.90;;;;;;4995347;28;20938;-60
2021/10/23 03:48:28;;;;;;;9.53;3.10;;;10.40;99.90;;;;;;5013390;28;20196;-60
2021/10/23 03:50:53;;;;;;;6.33;2.93;;;10.30;99.90;;;;;;5013291;28;20905;-62
2021/10/23 03:53:19;;;;;;;6.50;2.87;;;10.30;99.90;;;;;;5011261;28;20425;-60
2021/10/23 03:55:45;;;;;;;7.50;2.70;;;10.30;99.90;;;;;;5014978;28;20269;-60
2021/10/23 03:58:11;;;;;;;8.33;3.13;;;10.30;99.90;;;;;;5011011;28;20860;-60
2021/10/23 04:00:38;;;;;;;8.63;3.10;;;10.20;99.90;;;;;;5009661;28;20315;-60
2021/10/23 04:03:03;;;;;;;4.83;2.90;;;10.30;99.90;;;;;;5011734;28;20424;-61
2021/10/23 04:05:29;;;;;;;10.00;3.77;;;10.20;99.90;;;;;;5008321;28;20444;-60
2021/10/23 04:07:55;;;;;;;13.20;3.77;;;10.20;99.90;;;;;;5012307;28;20196;-60
2021/10/23 04:10:20;;;;;;;10.23;3.33;;;10.10;99.90;;;;;;5014940;28;20182;-60
2021/10/23 04:12:46;;;;;;;3.53;2.53;;;10.10;99.90;;;;;;5013622;28;20193;-61
2021/10/23 04:15:12;;;;;;;9.00;3.70;;;10.10;99.90;;;;;;5012442;28;20217;-61
2021/10/23 04:17:38;;;;;;;8.80;3.30;;;10.20;99.90;;;;;;5012967;28;20200;-61
2021/10/23 04:20:08;;;;;;;7.27;3.40;;;10.30;99.90;;;;;;5008531;28;20656;-61
2021/10/23 04:22:40;;;;;;;5.00;3.10;;;10.40;99.90;;;;;;5008777;28;20676;-60
2021/10/23 04:25:07;;;;;;;9.17;4.10;;;10.30;99.90;;;;;;4992720;28;20501;-60
2021/10/23 04:27:32;;;;;;;6.03;3.57;;;10.30;99.90;;;;;;5011303;28;20432;-59
2021/10/23 04:29:58;;;;;;;9.27;3.27;;;10.30;99.90;;;;;;5013658;28;20965;-59
2021/10/23 04:32:24;;;;;;;7.87;2.83;;;10.30;99.90;;;;;;5009374;28;20735;-59
2021/10/23 04:34:50;;;;;;;14.00;4.27;;;10.20;99.90;;;;;;5005815;28;20652;-60
2021/10/23 04:37:18;;;;;;;4.53;3.10;;;10.20;99.90;;;;;;5008006;28;20196;-61
2021/10/23 04:39:47;;;;;;;6.23;2.97;;;10.20;99.90;;;;;;5006398;28;20483;-60
2021/10/23 04:42:12;;;;;;;5.27;3.17;;;10.20;99.90;;;;;;5012741;28;20448;-60
2021/10/23 04:44:38;;;;;;;6.47;2.70;;;10.10;99.90;;;;;;4987956;28;20795;-60
2021/10/23 04:47:03;;;;;;;8.07;2.93;;;10.20;99.90;;;;;;5011334;28;20216;-59
2021/10/23 04:49:29;;;;;;;4.73;3.17;;;10.10;99.90;;;;;;5016666;28;20206;-60
2021/10/23 04:51:55;;;;;;;5.90;3.37;;;10.10;99.90;;;;;;5011716;28;20696;-60
2021/10/23 04:54:21;;;;;;;5.90;2.97;;;10.10;99.90;;;;;;5013063;28;20272;-60
2021/10/23 04:56:52;;;;;;;8.23;3.30;;;10.10;99.90;;;;;;4995248;28;20235;-60
2021/10/23 04:59:21;;;;;;;8.07;3.50;;;10.10;99.90;;;;;;5011127;28;20470;-60
2021/10/23 05:01:47;;;;;;;7.10;3.23;;;9.90;99.90;;;;;;4995733;28;20441;-60
2021/10/23 05:04:12;;;;;;;4.73;3.00;;;9.90;99.90;;;;;;4987444;28;20483;-60
2021/10/23 05:06:38;;;;;;;5.80;2.83;;;9.90;99.90;;;;;;5011961;28;20189;-60
2021/10/23 05:09:04;;;;;;;5.87;3.13;;;9.80;99.90;;;;;;5017509;28;20187;-59
2021/10/23 05:11:29;;;;;;;7.27;3.23;;;9.90;99.90;;;;;;4993771;28;20208;-60
2021/10/23 05:13:58;;;;;;;8.90;3.37;;;9.90;99.90;;;;;;5014946;28;20446;-60
2021/10/23 05:16:26;;;;;;;4.87;3.30;;;9.90;99.90;;;;;;5014125;28;20204;-61
2021/10/23 05:18:52;;;;;;;4.93;3.37;;;9.80;99.90;;;;;;5011611;28;20448;-60
2021/10/23 05:21:19;;;;;;;8.50;3.67;;;9.80;99.90;;;;;;4999690;28;20456;-61
2021/10/23 05:23:46;;;;;;;6.93;3.30;;;9.90;99.90;;;;;;4992200;28;20185;-61
2021/10/23 05:26:12;;;;;;;6.73;3.03;;;9.90;99.90;;;;;;5012536;28;20440;-61
2021/10/23 05:28:41;;;;;;;6.87;2.87;;;9.80;99.90;;;;;;5014286;28;20812;-61
2021/10/23 05:31:07;;;;;;;3.70;3.30;;;9.80;99.90;;;;;;5008708;28;20840;-61
2021/10/23 05:33:33;;;;;;;8.40;3.30;;;9.70;99.90;;;;;;4997973;28;20424;-61
2021/10/23 05:35:58;;;;;;;5.27;2.93;;;9.70;99.90;;;;;;5017277;28;20953;-60
2021/10/23 05:38:24;;;;;;;5.60;3.10;;;9.60;99.90;;;;;;5007093;28;20455;-60
2021/10/23 05:40:50;;;;;;;7.90;2.93;;;9.60;99.90;;;;;;5017598;28;20209;-61
2021/10/23 05:43:15;;;;;;;4.87;2.90;;;9.50;99.90;;;;;;5011792;28;20215;-61
2021/10/23 05:45:41;;;;;;;7.77;3.83;;;9.60;99.90;;;;;;5010619;28;20181;-62
2021/10/23 05:48:07;;;;;;;7.97;4.00;;;9.50;99.90;;;;;;5018620;28;20184;-62
2021/10/23 05:50:33;;;;;;;13.83;3.73;;;9.60;99.90;;;;;;5007784;28;20204;-63
2021/10/23 05:52:58;;;;;;;6.63;3.70;;;9.50;99.90;;;;;;5013327;28;20185;-63
2021/10/23 05:55:24;;;;;;;5.33;3.60;;;9.50;99.90;;;;;;5013312;28;20606;-62
2021/10/23 05:57:50;;;;;;;8.33;3.67;;;9.50;99.90;;;;;;5007124;28;20256;-63
2021/10/23 06:00:18;;;;;;;7.47;3.60;;;9.50;99.90;;;;;;5015845;28;20196;-63
2021/10/23 06:02:48;;;;;;;7.03;4.00;;;9.40;99.90;;;;;;5013634;28;20599;-61
2021/10/23 06:05:14;;;;;;;5.90;3.00;;;9.40;99.90;;;;;;4993811;28;20442;-60
2021/10/23 06:07:42;;;;;;;5.67;3.27;;;9.40;99.90;;;;;;5017363;28;20459;-59
2021/10/23 06:10:10;;;;;;;7.53;3.40;;;9.40;99.90;;;;;;5012672;28;20879;-62
2021/10/23 06:12:37;;;;;;;10.53;3.77;;;9.40;99.90;;;;;;5012249;28;20431;-61
2021/10/23 06:15:04;;;;;;;9.53;3.47;;;9.40;99.90;;;;;;4997684;28;20455;-62
2021/10/23 06:17:30;;;;;;;8.07;3.70;;;9.30;99.90;;;;;;5010064;28;20506;-62
2021/10/23 06:19:55;;;;;;;12.73;3.30;;;9.30;99.90;;;;;;5012575;28;20644;-62
2021/10/23 06:22:21;;;;;;;9.23;3.30;;;9.40;99.90;;;;;;5012523;28;20216;-62
2021/10/23 06:24:47;;;;;;;5.33;3.73;;;9.40;99.90;;;;;;5013025;28;20203;-61
2021/10/23 06:27:13;;;;;;;7.07;3.80;;;9.40;99.90;;;;;;5014894;28;20173;-62
2021/10/23 06:29:39;;;;;;;9.83;4.57;;;9.40;99.90;;;;;;5013014;28;20215;-61
2021/10/23 06:32:05;;;;;;;5.73;3.00;;;9.40;99.90;;;;;;5012389;28;20231;-62
2021/10/23 06:34:31;;;;;;;6.10;3.80;;;9.40;99.90;;;;;;5016105;28;20859;-63
2021/10/23 06:36:57;;;;;;;6.57;3.73;;;9.40;99.90;;;;;;5013295;28;20534;-63
2021/10/23 06:39:23;;;;;;;8.47;3.90;;;9.30;99.90;;;;;;5016655;28;20454;-63
2021/10/23 06:41:48;;;;;;;12.80;5.70;;;9.30;99.90;;;;;;5010944;28;20292;-63
2021/10/23 06:46:50;;;;;;;6.00;3.50;;;9.40;99.90;;;;;;4998828;22;20238;-63
2021/10/23 06:49:16;;;;;;;6.93;3.33;;;9.30;99.90;;;;;;4947674;28;20469;-61
2021/10/23 06:51:41;;;;;;;9.60;3.90;;;9.20;99.90;;;;;;4947847;28;20465;-64
2021/10/23 06:54:08;;;;;;;7.80;3.77;;;9.20;99.90;;;;;;4965659;28;20646;-64
2021/10/23 06:56:34;;;;;;;6.17;3.47;;;9.20;99.90;;;;;;4947204;28;20301;-64
2021/10/23 06:59:06;;;;;;;7.97;3.90;;;9.20;99.90;;;;;;4969940;28;20533;-64
2021/10/23 07:01:35;;;;;;;5.67;3.33;;;9.00;99.90;;;;;;4966833;28;20206;-65
2021/10/23 07:04:01;;;;;;;10.23;4.03;;;9.10;99.90;;;;;;4965972;28;20448;-62
2021/10/23 07:06:30;;;;;;;7.10;3.53;;;9.20;99.90;;;;;;4933988;28;20481;-65
2021/10/23 07:08:56;;;;;;;5.00;3.60;;;9.30;99.90;;;;;;4963799;28;21261;-65
2021/10/23 07:11:22;;;;;;;10.60;4.13;;;9.40;99.90;;;;;;4950285;28;20994;-66
2021/10/23 07:13:48;;;;;;;5.07;3.70;;;9.40;99.90;;;;;;4947416;28;20195;-65
2021/10/23 07:16:13;;;;;;;9.23;3.77;;;9.40;99.90;;;;;;4964064;28;20531;-65
2021/10/23 07:18:39;;;;;;;6.20;3.90;;;9.50;99.90;;;;;;4964893;28;20227;-66
2021/10/23 07:21:08;;;;;;;6.80;3.40;;;9.50;99.90;;;;;;4925896;28;20230;-65
2021/10/23 07:23:36;;;;;;;8.00;3.83;;;9.50;99.90;;;;;;4948278;28;20185;-63
2021/10/23 07:26:05;;;;;;;6.43;4.07;;;9.50;99.90;;;;;;4949907;28;20469;-62
2021/10/23 07:28:34;;;;;;;5.83;3.40;;;9.50;99.90;;;;;;4974396;28;20524;-64
2021/10/23 07:31:09;;;;;;;8.30;3.60;;;9.60;99.90;;;;;;4966007;28;20484;-61
2021/10/23 07:33:35;;;;;;;8.37;3.30;;;9.60;99.90;;;;;;4966681;28;20417;-61
2021/10/23 07:36:09;;;;;;;8.40;3.27;;;9.60;99.90;;;;;;4969512;28;21479;-64
2021/10/23 07:38:39;;;;;;;7.07;3.80;;;9.50;99.90;;;;;;4967094;28;20265;-65
2021/10/23 07:41:04;;;;;;;5.50;4.00;;;9.60;99.90;;;;;;4954472;28;21059;-64
2021/10/23 07:43:31;;;;;;;8.70;4.17;;;9.50;99.90;;;;;;4968288;28;20418;-64
2021/10/23 07:45:56;;;;;;;6.40;3.57;;;9.50;99.90;;;;;;4968198;28;20198;-65
2021/10/23 07:48:22;;;;;;;4.93;3.37;;;9.60;99.90;;;;;;4967453;28;20449;-66
2021/10/23 07:50:48;;;;;;;6.00;4.20;;;9.70;99.90;;;;;;4968097;28;20775;-65
2021/10/23 07:53:16;;;;;;;9.20;6.63;;;9.50;99.90;;;;;;4969084;28;20279;-64
2021/10/23 07:55:48;;;;;;;15.83;9.23;;;9.50;99.90;;;;;;4963293;28;20569;-65
2021/10/23 07:58:21;;;;;;;7.57;4.90;;;9.60;99.90;;;;;;4955277;28;20447;-64
2021/10/23 08:00:49;;;;;;;9.73;4.93;;;9.50;99.90;;;;;;4954257;28;21048;-63
2021/10/23 08:03:18;;;;;;;8.13;4.83;;;9.60;99.90;;;;;;4969050;28;20488;-64
2021/10/23 08:05:44;;;;;;;4.93;4.43;;;9.70;99.90;;;;;;4954512;28;20422;-64
2021/10/23 08:08:12;;;;;;;10.43;5.00;;;9.80;99.90;;;;;;4969333;28;20488;-65
2021/10/23 08:10:45;;;;;;;7.53;4.57;;;9.90;99.90;;;;;;4968999;28;20219;-64
2021/10/23 08:13:10;;;;;;;8.80;4.70;;;9.90;99.90;;;;;;4954486;28;20457;-63
2021/10/23 08:15:37;;;;;;;9.00;4.70;;;9.90;99.90;;;;;;4969682;28;20501;-65
2021/10/23 08:18:03;;;;;;;6.00;4.40;;;10.10;99.90;;;;;;4968465;28;20195;-64
2021/10/23 08:20:52;;;;;;;8.53;5.50;;;10.00;99.90;;;;;;4966546;28;20469;-66
2021/10/23 08:23:19;;;;;;;8.70;5.40;;;10.00;99.90;;;;;;4949222;28;20448;-66
2021/10/23 08:25:45;;;;;;;14.93;5.67;;;10.00;99.90;;;;;;4969604;28;20427;-64
2021/10/23 08:28:11;;;;;;;15.97;7.67;;;10.00;99.90;;;;;;4952877;28;20449;-65
2021/10/23 08:30:37;;;;;;;9.93;4.90;;;10.00;99.90;;;;;;4966134;28;21467;-64
2021/10/23 08:33:04;;;;;;;10.03;6.20;;;10.10;99.90;;;;;;4966838;28;20549;-62
2021/10/23 08:35:30;;;;;;;9.73;5.50;;;10.30;99.90;;;;;;4951027;28;20524;-61
2021/10/23 08:37:56;;;;;;;14.67;5.80;;;10.30;99.90;;;;;;4952338;28;20429;-62
2021/10/23 08:40:22;;;;;;;13.40;5.60;;;10.30;99.90;;;;;;4966995;28;20422;-60
2021/10/23 08:42:49;;;;;;;11.80;5.80;;;10.30;99.90;;;;;;4966948;28;20188;-61
2021/10/23 08:45:16;;;;;;;10.83;5.57;;;10.30;99.90;;;;;;4963135;28;20450;-61
2021/10/23 08:47:44;;;;;;;6.73;5.00;;;10.40;99.90;;;;;;4962078;28;20453;-61
2021/10/23 08:50:16;;;;;;;8.13;5.60;;;10.40;99.90;;;;;;4965691;28;20441;-62
2021/10/23 08:52:48;;;;;;;12.13;6.47;;;10.50;99.90;;;;;;4967104;28;20430;-63
2021/10/23 08:55:14;;;;;;;8.93;5.47;;;10.50;99.90;;;;;;4970321;28;20458;-63
2021/10/23 08:57:44;;;;;;;10.00;5.87;;;10.50;99.90;;;;;;4969493;28;20979;-64
2021/10/23 09:00:11;;;;;;;12.87;6.07;;;10.50;99.90;;;;;;4948697;28;20495;-64
2021/10/23 09:02:36;;;;;;;9.70;6.77;;;10.60;99.90;;;;;;4964426;28;20849;-64
2021/10/23 09:05:03;;;;;;;14.20;6.07;;;10.70;99.90;;;;;;4948294;28;20863;-63
2021/10/23 09:07:31;;;;;;;9.27;6.50;;;10.80;99.90;;;;;;4955963;28;20185;-64
2021/10/23 09:10:08;;;;;;;13.40;5.90;;;10.80;99.90;;;;;;4969060;28;20804;-63
2021/10/23 09:13:09;;;;;;;7.77;5.67;;;10.80;99.90;;;;;;4972179;28;20444;-63
2021/10/23 09:15:42;;;;;;;10.40;5.47;;;11.00;99.90;;;;;;4965036;28;20551;-63
2021/10/23 09:18:09;;;;;;;13.23;5.83;;;11.00;99.90;;;;;;4965457;28;20431;-64
2021/10/23 09:20:44;;;;;;;15.70;6.10;;;11.00;99.90;;;;;;4970053;28;20462;-62
2021/10/23 09:23:18;;;;;;;11.93;5.63;;;11.10;99.90;;;;;;4941829;28;20429;-60
2021/10/23 09:25:54;;;;;;;8.87;5.77;;;11.20;99.90;;;;;;4970755;28;20427;-62
2021/10/23 09:29:25;;;;;;;9.37;5.13;;;11.20;99.90;;;;;;4972818;28;20433;-64
2021/10/23 09:31:58;;;;;;;8.37;5.47;;;11.40;99.90;;;;;;4927030;28;20548;-61
2021/10/23 09:34:41;;;;;;;14.40;5.20;;;11.50;99.90;;;;;;4967253;28;20794;-61
2021/10/23 09:37:07;;;;;;;6.73;4.17;;;11.60;99.90;;;;;;4967647;28;20429;-61
2021/10/23 09:39:36;;;;;;;7.87;4.10;;;11.60;99.90;;;;;;4966072;28;20437;-62
2021/10/23 09:42:15;;;;;;;9.23;4.27;;;11.50;99.90;;;;;;4950260;28;20294;-61
2021/10/23 09:45:04;;;;;;;7.50;4.20;;;11.50;99.90;;;;;;4966857;28;20422;-64
2021/10/23 09:47:39;;;;;;;7.33;4.07;;;11.60;99.90;;;;;;4965282;28;20835;-65
2021/10/23 09:50:16;;;;;;;9.20;4.33;;;11.60;99.90;;;;;;4965802;28;20529;-64
2021/10/23 09:53:04;;;;;;;7.40;4.13;;;11.70;99.90;;;;;;4949556;28;20510;-63
2021/10/23 09:55:39;;;;;;;7.50;4.10;;;11.90;99.90;;;;;;4963906;28;20556;-64
2021/10/23 09:58:17;;;;;;;6.57;4.43;;;12.00;99.90;;;;;;4968448;28;20484;-64
2021/10/23 10:00:47;;;;;;;5.73;4.10;;;11.90;99.90;;;;;;4971852;28;20472;-64
2021/10/23 10:03:13;;;;;;;7.60;4.90;;;11.90;99.90;;;;;;4964413;28;20806;-64
2021/10/23 10:05:40;;;;;;;6.20;3.80;;;12.00;99.90;;;;;;4970260;28;20809;-65
2021/10/23 10:08:14;;;;;;;11.57;4.57;;;12.20;99.90;;;;;;4968234;28;20452;-64
2021/10/23 10:10:57;;;;;;;8.00;4.70;;;12.20;99.90;;;;;;4963378;28;20472;-64
2021/10/23 10:13:25;;;;;;;8.70;5.67;;;12.20;99.90;;;;;;4966005;28;20500;-60
2021/10/23 10:16:06;;;;;;;7.93;5.90;;;12.30;99.90;;;;;;4964400;28;20485;-66
2021/10/23 10:18:33;;;;;;;11.50;4.37;;;12.40;99.90;;;;;;4968292;28;20456;-65
2021/10/23 10:20:59;;;;;;;8.67;4.50;;;12.50;99.90;;;;;;4966096;28;20469;-64
2021/10/23 10:23:32;;;;;;;6.93;4.70;;;12.50;99.90;;;;;;4947601;28;20735;-64
2021/10/23 10:26:17;;;;;;;8.23;5.23;;;12.60;99.90;;;;;;4960296;28;20464;-69
2021/10/23 10:47:04;;;;;;;11.43;4.77;;;13.10;99.90;;;;;;5428160;22;21076;-64
2021/10/23 10:49:50;;;;;;;5.20;4.03;;;12.90;99.90;;;;;;5026279;23;20499;-63
2021/10/23 10:52:38;;;;;;;5.70;3.73;;;12.90;99.90;;;;;;4966087;28;20793;-63
2021/10/23 10:58:05;;;;;;;6.43;4.03;;;13.20;99.90;;;;;;5021703;28;20487;-65
2021/10/23 11:01:12;;;;;;;11.33;5.37;;;13.40;99.90;;;;;;5024322;28;20509;-64
2021/10/23 11:04:03;;;;;;;4.93;4.20;;;13.40;99.90;;;;;;5025513;28;20437;-64
2021/10/23 11:06:35;;;;;;;6.50;4.03;;;13.50;99.90;;;;;;5012577;28;20590;-64
2021/10/23 11:09:16;;;;;;;6.57;4.00;;;13.50;99.90;;;;;;4992232;28;20444;-64
2021/10/23 11:11:46;;;;;;;5.93;3.80;;;13.60;99.90;;;;;;5013747;28;20419;-64
2021/10/23 11:14:35;;;;;;;9.67;4.20;;;13.60;99.90;;;;;;5018827;28;20466;-62
2021/10/23 11:17:03;;;;;;;9.33;4.53;;;13.80;99.90;;;;;;5009526;28;21015;-62
2021/10/23 11:19:39;;;;;;;6.83;4.93;;;14.00;99.90;;;;;;4988374;28;20814;-64
2021/10/23 11:22:34;;;;;;;6.70;4.80;;;13.90;99.90;;;;;;5002374;28;20466;-64
2021/10/23 11:25:05;;;;;;;10.33;4.60;;;14.10;99.90;;;;;;4999620;28;20722;-61
2021/10/23 11:27:53;;;;;;;5.77;3.90;;;14.30;99.90;;;;;;4997412;28;20848;-64
2021/10/23 11:30:25;;;;;;;6.50;4.13;;;14.20;99.90;;;;;;5007467;28;20988;-65
2021/10/23 11:33:08;;;;;;;7.03;4.07;;;14.40;99.90;;;;;;5009770;28;20501;-62
2021/10/23 11:35:58;;;;;;;5.80;3.57;;;14.50;99.90;;;;;;5007811;28;21018;-62
2021/10/23 11:38:28;;;;;;;7.23;3.93;;;14.80;99.90;;;;;;4977641;28;20486;-62
2021/10/23 11:41:31;;;;;;;5.90;3.30;;;15.00;99.90;;;;;;5005930;28;20463;-63
2021/10/23 11:44:09;;;;;;;4.70;4.00;;;15.50;99.90;;;;;;5006472;28;20558;-64
2021/10/23 11:46:38;;;;;;;5.63;3.90;;;16.40;99.90;;;;;;4993943;28;20468;-62
2021/10/23 11:49:08;;;;;;;5.97;3.60;;;18.10;99.90;;;;;;5007929;28;20441;-63
2021/10/23 11:51:34;;;;;;;7.53;3.43;;;19.80;99.90;;;;;;5007570;28;20841;-64
2021/10/23 11:54:15;;;;;;;5.57;4.37;;;21.40;99.90;;;;;;5008834;28;20470;-64
2021/10/23 11:56:48;;;;;;;4.40;3.47;;;21.70;99.90;;;;;;4991865;28;20474;-62
2021/10/23 11:59:16;;;;;;;5.87;2.93;;;23.30;99.90;;;;;;5018382;28;20563;-62
2021/10/23 12:01:42;;;;;;;3.50;3.10;;;25.20;96.90;;;;;;5022700;28;20440;-66
2021/10/23 12:04:09;;;;;;;5.90;3.27;;;26.20;92.40;;;;;;4991352;28;20448;-66
2021/10/23 12:06:44;;;;;;;5.60;2.93;;;28.20;83.20;;;;;;5160672;23;21009;-65
2021/10/23 12:09:23;;;;;;;4.37;3.30;;;29.10;73.40;;;;;;5003251;28;20936;-65
2021/10/23 12:12:11;;;;;;;8.33;3.50;;;30.80;63.60;;;;;;5007496;28;20466;-65
2021/10/23 12:14:37;;;;;;;6.03;3.23;;;32.10;54.60;;;;;;5006971;28;20428;-63
2021/10/23 12:17:09;;;;;;;5.70;3.50;;;32.90;51.00;;;;;;4980144;28;20471;-63
2021/10/23 12:19:36;;;;;;;2.50;2.30;;;32.60;48.50;;;;;;5005162;28;20455;-63
2021/10/23 12:22:10;;;;;;;3.53;3.13;;;31.60;46.60;;;;;;4995692;28;20976;-63
2021/10/23 12:24:50;;;;;;;2.73;2.20;;;30.00;47.60;;;;;;5003958;28;20509;-63
2021/10/23 12:27:30;;;;;;;5.50;3.27;;;27.60;49.30;;;;;;4990910;28;20888;-63
2021/10/23 12:30:04;;;;;;;5.47;3.37;;;26.00;52.60;;;;;;5007595;28;20462;-63
2021/10/23 12:32:51;;;;;;;3.00;2.63;;;25.00;54.70;;;;;;5007638;28;20836;-63
2021/10/23 12:35:29;;;;;;;4.77;3.53;;;23.80;57.10;;;;;;5009268;28;20510;-63
2021/10/23 12:38:12;;;;;;;8.43;3.00;;;22.70;59.40;;;;;;5008332;28;20530;-63
2021/10/23 12:40:40;;;;;;;6.80;3.70;;;21.70;62.10;;;;;;5026052;28;20945;-65
2021/10/23 12:43:10;;;;;;;5.37;3.10;;;21.00;64.80;;;;;;5007922;28;20454;-66
2021/10/23 12:45:55;;;;;;;5.30;3.63;;;20.20;67.50;;;;;;5052529;23;20486;-66
2021/10/23 12:48:22;;;;;;;4.20;3.20;;;19.60;69.80;;;;;;5014264;28;20878;-64
2021/10/23 12:51:44;;;;;;;4.57;2.75;;;19.00;71.00;;;;;;5012928;28;20933;-64
2021/10/23 12:54:15;;;;;;;5.70;3.60;;;18.50;73.70;;;;;;5009833;28;20188;-62
2021/10/23 12:56:43;;;;;;;3.70;2.80;;;18.20;75.50;;;;;;5022308;28;20475;-65
2021/10/23 12:59:09;;;;;;;4.63;3.03;;;17.90;76.80;;;;;;5004979;28;20563;-63
2021/10/23 13:01:35;;;;;;;5.77;3.10;;;17.80;79.00;;;;;;4990458;28;20787;-63
2021/10/23 13:04:04;;;;;;;3.90;2.83;;;17.50;81.30;;;;;;5021118;28;20446;-62
2021/10/23 13:06:30;;;;;;;3.80;2.83;;;17.30;82.60;;;;;;5001372;28;21187;-63
2021/10/23 13:09:02;;;;;;;4.13;3.10;;;17.10;84.30;;;;;;4990150;28;20452;-65
2021/10/23 13:12:12;;;;;;;5.10;3.00;;;17.00;85.40;;;;;;5002990;28;20451;-65
2021/10/23 13:14:44;;;;;;;3.87;3.00;;;16.70;87.50;;;;;;5017669;28;20820;-64
2021/10/23 13:17:12;;;;;;;8.40;3.20;;;16.60;88.30;;;;;;5018540;22;20447;-62
2021/10/23 13:19:38;;;;;;;4.60;3.17;;;16.50;88.60;;;;;;5023621;28;20806;-63
2021/10/23 13:22:03;;;;;;;7.10;3.70;;;16.40;89.90;;;;;;5021100;28;20427;-61
2021/10/23 13:24:29;;;;;;;7.40;2.70;;;16.40;90.40;;;;;;5006524;28;20250;-61
2021/10/23 13:26:56;;;;;;;4.30;2.60;;;16.20;90.60;;;;;;5010283;28;20264;-61